Cringleford, United Kingdom
Current Conditions -  °F | °C
As of 12:50 AM on Thursday 23 Oct 2014 (Local Time) from EGSH Reporting Station
Clear Clear  
Wind Chill: 50°   Ceiling: Unl
Heat Index: 50°   Visibility: 6mi
Dew Point: 46°   Wind: 9mph
Humidity: 87%   Direction: 220°SW
Pressure: 30.15"   Gusts: NA
Location:  52.6°N, 1.24°E
Report Text: EGSH 222350Z AUTO 22008KT 9999 NCD 10/08 Q1021
Loading
Personal Weather Stations






























Interactive Weather Map New forecast layout! Learn more

10-Day Weather Forecast

Advertisements
Track Severe Weather on mobile